createdAt,value
2022-10-02T00:02:28.041Z,73.25
2022-10-02T00:05:38.260Z,72.60
2022-10-02T00:08:42.992Z,73.08
2022-10-02T00:11:49.914Z,73.07
2022-10-02T00:14:57.946Z,73.57
2022-10-02T00:18:09.003Z,73.30
2022-10-02T00:21:24.689Z,73.70
2022-10-02T00:24:34.641Z,73.41
2022-10-02T00:27:56.339Z,73.64
2022-10-02T00:31:15.875Z,72.96
2022-10-02T00:34:34.966Z,72.58
2022-10-02T00:37:47.604Z,72.36
2022-10-02T00:41:13.451Z,72.62
2022-10-02T00:44:38.969Z,72.77
2022-10-02T00:47:49.519Z,74.50
2022-10-02T00:51:04.557Z,73.84
2022-10-02T00:54:25.441Z,73.39
2022-10-02T00:57:44.846Z,73.34
2022-10-02T01:01:00.857Z,72.36
2022-10-02T01:04:12.501Z,73.19
2022-10-02T01:07:17.514Z,73.06
2022-10-02T01:10:22.415Z,72.80
2022-10-02T01:13:26.660Z,72.14
2022-10-02T01:16:31.299Z,71.52
2022-10-02T01:19:39.194Z,71.19
2022-10-02T01:22:50.621Z,70.88
2022-10-02T01:25:57.748Z,70.86
2022-10-02T01:29:02.198Z,70.57
2022-10-02T01:32:06.043Z,69.87
2022-10-02T01:35:10.981Z,69.01
2022-10-02T01:38:18.384Z,68.89
2022-10-02T01:41:25.433Z,69.32
2022-10-02T01:44:30.321Z,68.63
2022-10-02T01:47:47.793Z,68.76
2022-10-02T01:51:06.101Z,68.50
2022-10-02T01:54:20.124Z,69.11
2022-10-02T01:57:40.802Z,68.59
2022-10-02T02:01:02.723Z,67.91
2022-10-02T02:04:21.725Z,68.22
2022-10-02T02:07:37.868Z,68.12
2022-10-02T02:10:52.707Z,68.77
2022-10-02T02:14:07.395Z,68.65
2022-10-02T02:17:20.683Z,68.44
2022-10-02T02:20:31.113Z,68.56
2022-10-02T02:23:39.213Z,67.80
2022-10-02T02:26:47.323Z,68.85
2022-10-02T02:29:56.714Z,68.21
2022-10-02T02:33:07.678Z,68.65
2022-10-02T02:36:20.314Z,69.20
2022-10-02T02:39:31.526Z,68.70
2022-10-02T02:42:40.078Z,68.97
2022-10-02T02:45:51.987Z,69.27
2022-10-02T02:49:14.975Z,69.86
2022-10-02T02:52:22.545Z,70.39
2022-10-02T02:55:34.215Z,69.51
2022-10-02T02:58:44.172Z,69.28
2022-10-02T03:01:50.714Z,69.08
2022-10-02T03:04:54.579Z,68.59
2022-10-02T03:08:01.095Z,69.11
2022-10-02T03:11:14.422Z,69.53
2022-10-02T03:14:52.745Z,68.87
2022-10-02T03:18:23.617Z,68.06
2022-10-02T03:21:34.041Z,68.85
2022-10-02T03:24:45.615Z,68.67
2022-10-02T03:27:55.175Z,67.49
2022-10-02T03:31:00.468Z,67.93
2022-10-02T03:34:07.040Z,67.84
2022-10-02T03:37:11.141Z,67.60
2022-10-02T03:40:18.402Z,68.06
2022-10-02T03:43:24.414Z,68.28
2022-10-02T03:46:28.882Z,68.09
2022-10-02T03:49:34.981Z,68.41
2022-10-02T03:52:41.726Z,68.85
2022-10-02T03:55:48.141Z,68.89
2022-10-02T03:58:59.331Z,68.20
2022-10-02T04:02:07.973Z,67.39
2022-10-02T04:05:24.025Z,67.40
2022-10-02T04:08:36.579Z,67.96
2022-10-02T04:11:45.371Z,68.55
2022-10-02T04:14:57.202Z,68.81
2022-10-02T04:18:06.230Z,69.36
2022-10-02T04:21:21.975Z,69.00
2022-10-02T04:24:31.237Z,69.54
2022-10-02T04:27:39.808Z,69.45
2022-10-02T04:30:43.850Z,69.27
2022-10-02T04:33:48.203Z,68.71
2022-10-02T04:37:11.624Z,68.39
2022-10-02T04:40:31.289Z,69.05
2022-10-02T04:43:51.915Z,69.42
2022-10-02T04:47:11.952Z,69.26
2022-10-02T04:50:32.857Z,69.48
2022-10-02T04:53:58.430Z,70.31
2022-10-02T04:57:20.061Z,70.00
2022-10-02T05:00:25.144Z,70.04
2022-10-02T05:03:48.638Z,71.00
2022-10-02T05:07:07.426Z,71.01
2022-10-02T05:10:31.496Z,71.01
2022-10-02T05:13:55.335Z,70.75
2022-10-02T05:17:24.470Z,71.70
2022-10-02T05:21:02.927Z,71.04
2022-10-02T05:24:24.802Z,71.23
2022-10-02T05:27:51.842Z,71.29
2022-10-02T05:31:05.462Z,71.01
2022-10-02T05:34:38.250Z,72.83
2022-10-02T05:37:56.226Z,71.77
2022-10-02T05:41:06.497Z,71.18
2022-10-02T05:44:17.936Z,71.34
2022-10-02T05:47:30.495Z,70.84
2022-10-02T05:50:37.802Z,70.38
2022-10-02T05:53:47.248Z,68.39
2022-10-02T05:56:59.740Z,68.53
2022-10-02T06:00:18.522Z,68.52
2022-10-02T06:03:32.453Z,68.55
2022-10-02T06:06:44.348Z,68.67
2022-10-02T06:09:54.889Z,68.76
2022-10-02T06:13:07.955Z,68.76
2022-10-02T06:16:19.892Z,68.72
2022-10-02T06:19:28.435Z,68.30
2022-10-02T06:22:36.947Z,67.20
2022-10-02T06:25:46.087Z,67.31
2022-10-02T06:28:55.407Z,65.39
2022-10-02T06:32:18.011Z,64.52
2022-10-02T06:35:43.433Z,63.83
2022-10-02T06:39:14.453Z,63.62
2022-10-02T06:42:45.484Z,63.30
2022-10-02T06:46:07.473Z,62.15
2022-10-02T06:49:25.299Z,59.52
2022-10-02T06:52:43.831Z,54.76
2022-10-02T06:55:59.799Z,53.83
2022-10-02T06:59:15.933Z,49.35
2022-10-02T07:02:33.920Z,46.49
2022-10-02T07:06:02.112Z,44.07
2022-10-02T07:09:40.684Z,42.62
2022-10-02T07:12:58.847Z,43.90
2022-10-02T07:16:27.889Z,41.15
2022-10-02T07:19:59.705Z,42.20
2022-10-02T07:23:26.746Z,43.05
2022-10-02T07:26:50.855Z,42.31
2022-10-02T07:30:03.763Z,41.50
2022-10-02T07:33:20.554Z,40.15
2022-10-02T07:36:39.466Z,40.55
2022-10-02T07:40:06.671Z,39.16
2022-10-02T07:43:23.814Z,40.90
2022-10-02T07:46:38.741Z,42.49
2022-10-02T07:49:52.209Z,44.95
2022-10-02T07:53:04.403Z,46.94
2022-10-02T07:56:19.966Z,46.91
2022-10-02T07:59:32.833Z,49.00
2022-10-02T08:02:44.521Z,49.31
2022-10-02T08:05:51.144Z,49.83
2022-10-02T08:09:01.379Z,51.86
2022-10-02T08:12:17.058Z,53.54
2022-10-02T08:15:23.599Z,52.64
2022-10-02T08:18:58.688Z,52.27
2022-10-02T08:22:10.270Z,52.37
2022-10-02T08:25:21.156Z,52.31
2022-10-02T08:28:41.150Z,54.73
2022-10-02T08:31:45.699Z,52.51
2022-10-02T08:34:49.446Z,55.00
2022-10-02T08:38:20.281Z,55.39
2022-10-02T08:41:55.533Z,55.56
2022-10-02T08:45:24.541Z,54.67
2022-10-02T08:49:08.249Z,56.18
2022-10-02T08:52:44.956Z,55.17
2022-10-02T08:56:03.535Z,56.30
2022-10-02T08:59:54.762Z,56.15
2022-10-02T09:03:45.889Z,57.04
2022-10-02T09:07:42.517Z,57.21
2022-10-02T09:11:19.419Z,56.50
2022-10-02T09:14:55.573Z,56.67
2022-10-02T09:18:16.906Z,56.68
2022-10-02T09:21:42.924Z,55.68
2022-10-02T09:25:02.900Z,55.14
2022-10-02T09:28:42.995Z,54.13
2022-10-02T09:32:21.789Z,54.20
2022-10-02T09:35:55.918Z,52.03
2022-10-02T09:39:29.926Z,53.41
2022-10-02T09:43:12.214Z,53.92
2022-10-02T09:46:52.939Z,51.54
2022-10-02T09:50:28.528Z,51.47
2022-10-02T09:53:51.086Z,51.11
2022-10-02T09:57:21.140Z,50.24
2022-10-02T10:00:37.926Z,50.71
2022-10-02T10:04:47.934Z,52.23
2022-10-02T10:08:37.639Z,47.80
2022-10-02T10:12:19.373Z,47.40
2022-10-02T10:16:04.650Z,49.79
2022-10-02T10:19:47.910Z,48.52
2022-10-02T10:23:35.906Z,46.53
2022-10-02T10:27:17.159Z,45.21
2022-10-02T10:30:37.624Z,47.19
2022-10-02T10:34:08.803Z,47.38
2022-10-02T10:37:47.101Z,47.37
2022-10-02T10:41:11.443Z,47.90
2022-10-02T10:48:52.790Z,48.89
2022-10-02T10:52:26.793Z,48.86
2022-10-02T10:55:59.218Z,50.00
2022-10-02T10:59:25.026Z,50.59
2022-10-02T11:02:54.791Z,49.86
2022-10-02T11:06:54.783Z,50.90
2022-10-02T11:10:25.597Z,51.87
2022-10-02T11:13:58.450Z,52.10
2022-10-02T11:17:31.387Z,52.38
2022-10-02T11:21:28.242Z,50.75
2022-10-02T11:25:13.171Z,50.05
2022-10-02T11:28:37.684Z,50.47
2022-10-02T11:32:05.427Z,48.48
2022-10-02T11:35:23.551Z,48.85
2022-10-02T11:43:30.699Z,51.46
2022-10-02T11:46:53.685Z,51.82
2022-10-02T11:50:33.015Z,51.43
2022-10-02T11:54:02.457Z,51.57
2022-10-02T11:57:34.616Z,51.12
2022-10-02T12:01:28.506Z,51.14
2022-10-02T12:04:46.692Z,50.02
2022-10-02T12:07:58.618Z,50.27
2022-10-02T12:11:17.475Z,50.18
2022-10-02T12:14:35.655Z,48.73
2022-10-02T12:18:22.029Z,49.43
2022-10-02T12:22:01.029Z,49.04
2022-10-02T12:25:39.324Z,48.52
2022-10-02T12:28:56.220Z,49.32
2022-10-02T12:32:16.583Z,49.08
2022-10-02T12:35:38.484Z,49.95
2022-10-02T12:38:55.608Z,49.22
2022-10-02T12:42:17.063Z,47.96
2022-10-02T12:45:58.516Z,47.43
2022-10-02T12:49:34.484Z,47.23
2022-10-02T12:53:07.641Z,47.67
2022-10-02T12:56:55.343Z,47.52
2022-10-02T13:00:05.746Z,48.85
2022-10-02T13:03:30.365Z,47.91
2022-10-02T13:11:59.678Z,48.43
2022-10-02T13:15:26.178Z,49.16
2022-10-02T13:19:19.892Z,49.27
2022-10-02T13:22:33.995Z,48.14
2022-10-02T13:25:47.014Z,47.98
2022-10-02T13:29:22.252Z,48.08
2022-10-02T13:32:44.214Z,48.31
2022-10-02T13:36:08.851Z,48.13
2022-10-02T13:39:45.615Z,47.60
2022-10-02T13:43:49.613Z,47.10
2022-10-02T13:47:41.981Z,47.26
2022-10-02T13:50:58.319Z,47.50
2022-10-02T13:54:25.021Z,46.27
2022-10-02T13:57:44.635Z,47.11
2022-10-02T14:01:00.266Z,46.92
2022-10-02T14:04:23.614Z,46.78
2022-10-02T14:07:40.773Z,47.76
2022-10-02T14:10:57.522Z,47.38
2022-10-02T14:14:15.944Z,47.13
2022-10-02T14:17:36.051Z,46.69
2022-10-02T14:20:53.600Z,46.79
2022-10-02T14:24:46.755Z,47.05
2022-10-02T14:28:27.058Z,47.19
2022-10-02T14:32:06.813Z,47.34
2022-10-02T14:35:37.642Z,47.21
2022-10-02T14:39:04.599Z,47.08
2022-10-02T14:42:23.634Z,46.65
2022-10-02T14:46:17.821Z,48.12
2022-10-02T14:49:49.013Z,47.98
2022-10-02T14:53:13.868Z,47.63
2022-10-02T14:56:49.640Z,47.72
2022-10-02T15:00:13.791Z,48.46
2022-10-02T15:03:33.963Z,48.26
2022-10-02T15:07:05.387Z,48.50
2022-10-02T15:10:17.660Z,48.83
2022-10-02T15:13:34.739Z,48.26
2022-10-02T15:17:04.888Z,48.79
2022-10-02T15:20:26.943Z,49.13
2022-10-02T15:23:43.451Z,49.28
2022-10-02T15:26:51.913Z,49.51
2022-10-02T15:30:16.502Z,49.54
2022-10-02T15:33:30.660Z,49.49
2022-10-02T15:36:52.307Z,49.88
2022-10-02T15:40:08.943Z,49.78
2022-10-02T15:43:34.779Z,49.98
2022-10-02T15:46:54.292Z,49.36
2022-10-02T15:50:12.642Z,50.31
2022-10-02T15:53:36.449Z,51.57
2022-10-02T15:56:52.577Z,51.81
2022-10-02T16:00:11.296Z,52.30
2022-10-02T16:03:24.491Z,53.39
2022-10-02T16:06:50.827Z,52.91
2022-10-02T16:10:07.673Z,54.73
2022-10-02T16:13:35.042Z,55.42
2022-10-02T16:17:06.761Z,55.29
2022-10-02T16:20:54.105Z,55.29
2022-10-02T16:24:20.465Z,56.88
2022-10-02T16:27:49.206Z,56.55
2022-10-02T16:31:27.064Z,56.83
2022-10-02T16:34:43.495Z,57.70
2022-10-02T16:37:49.173Z,58.03
2022-10-02T16:40:59.642Z,59.41
2022-10-02T16:44:22.986Z,58.85
2022-10-02T16:47:30.438Z,60.02
2022-10-02T16:50:48.758Z,60.30
2022-10-02T16:54:02.302Z,60.27
2022-10-02T16:57:21.078Z,60.26
2022-10-02T17:00:26.749Z,60.66
2022-10-02T17:03:35.754Z,61.09
2022-10-02T17:06:43.231Z,60.86
2022-10-02T17:09:50.708Z,60.97
2022-10-02T17:13:07.001Z,60.76
2022-10-02T17:16:20.935Z,61.03
2022-10-02T17:19:31.787Z,61.67
2022-10-02T17:22:41.708Z,62.89
2022-10-02T17:25:55.355Z,62.92
2022-10-02T17:29:09.594Z,63.71
2022-10-02T17:32:13.536Z,63.63
2022-10-02T17:35:20.379Z,64.42
2022-10-02T17:38:50.513Z,64.90
2022-10-02T17:41:59.899Z,64.06
2022-10-02T17:45:19.614Z,64.32
2022-10-02T17:48:32.922Z,63.73
2022-10-02T17:51:53.058Z,63.34
2022-10-02T17:55:32.223Z,64.65
2022-10-02T17:58:47.170Z,63.92
2022-10-02T18:02:04.755Z,64.05
2022-10-02T18:05:27.270Z,63.35
2022-10-02T18:08:45.499Z,63.34
2022-10-02T18:12:07.071Z,63.56
2022-10-02T18:15:27.746Z,63.99
2022-10-02T18:18:42.244Z,63.46
2022-10-02T18:21:58.671Z,64.23
2022-10-02T18:25:27.632Z,63.63
2022-10-02T18:28:57.303Z,63.22
2022-10-02T18:32:22.137Z,64.77
2022-10-02T18:35:53.541Z,64.19
2022-10-02T18:39:01.068Z,64.02
2022-10-02T18:42:33.917Z,64.60
2022-10-02T18:45:47.963Z,64.74
2022-10-02T18:49:22.646Z,64.83
2022-10-02T18:52:44.187Z,64.15
2022-10-02T18:56:03.593Z,64.46
2022-10-02T18:59:21.309Z,64.19
2022-10-02T19:02:41.776Z,64.45
2022-10-02T19:05:52.038Z,64.17
2022-10-02T19:09:06.341Z,64.43
2022-10-02T19:12:18.671Z,65.86
2022-10-02T19:15:27.236Z,65.83
2022-10-02T19:18:33.025Z,65.23
2022-10-02T19:21:39.233Z,65.10
2022-10-02T19:24:48.775Z,65.23
2022-10-02T19:27:56.427Z,64.79
2022-10-02T19:31:04.071Z,63.97
2022-10-02T19:34:16.019Z,63.86
2022-10-02T19:37:23.029Z,64.31
2022-10-02T19:40:34.647Z,64.77
2022-10-02T19:43:49.555Z,64.75
2022-10-02T19:46:57.363Z,64.66
2022-10-02T19:50:04.158Z,64.38
2022-10-02T19:53:21.814Z,65.27
2022-10-02T19:56:32.096Z,64.39
2022-10-02T19:59:41.987Z,65.14
2022-10-02T20:02:48.957Z,65.14
2022-10-02T20:05:57.847Z,65.73
2022-10-02T20:09:13.684Z,65.49
2022-10-02T20:12:25.406Z,65.63
2022-10-02T20:15:53.679Z,65.66
2022-10-02T20:18:58.257Z,65.73
2022-10-02T20:22:09.068Z,64.59
2022-10-02T20:25:18.992Z,64.37
2022-10-02T20:28:46.512Z,64.68
2022-10-02T20:31:55.458Z,65.60
2022-10-02T20:35:08.553Z,64.95
2022-10-02T20:38:20.596Z,64.65
2022-10-02T20:41:28.379Z,64.59
2022-10-02T20:44:36.358Z,64.43
2022-10-02T20:48:35.783Z,64.99
2022-10-02T20:52:17.831Z,65.03
2022-10-02T20:55:28.847Z,65.81
2022-10-02T20:59:06.335Z,65.49
2022-10-02T21:02:29.025Z,66.26
2022-10-02T21:06:00.519Z,64.70
2022-10-02T21:09:33.338Z,66.03
2022-10-02T21:13:12.884Z,66.24
2022-10-02T21:16:52.881Z,64.82
2022-10-02T21:20:50.920Z,64.83
2022-10-02T21:24:47.774Z,65.17
2022-10-02T21:28:32.257Z,65.49
2022-10-02T21:31:58.602Z,65.39
2022-10-02T21:35:37.662Z,64.77
2022-10-02T21:38:57.991Z,64.27
2022-10-02T21:42:37.108Z,63.72
2022-10-02T21:45:58.727Z,63.45
2022-10-02T21:49:47.324Z,64.26
2022-10-02T21:53:43.971Z,63.80
2022-10-02T21:57:38.570Z,64.16
2022-10-02T22:01:06.524Z,64.96
2022-10-02T22:04:40.590Z,65.11
2022-10-02T22:07:54.838Z,65.11
2022-10-02T22:11:09.795Z,64.57
2022-10-02T22:14:19.471Z,64.28
2022-10-02T22:17:33.744Z,64.33
2022-10-02T22:20:52.996Z,64.51
2022-10-02T22:24:21.041Z,64.93
2022-10-02T22:27:56.624Z,64.62
2022-10-02T22:31:36.669Z,63.76
2022-10-02T22:34:51.794Z,64.11
2022-10-02T22:38:10.787Z,63.97
2022-10-02T22:41:25.814Z,63.56
2022-10-02T22:44:40.182Z,64.24
2022-10-02T22:47:54.235Z,64.35
2022-10-02T22:51:03.473Z,63.43
2022-10-02T22:54:19.558Z,63.89
2022-10-02T22:57:34.266Z,63.50
2022-10-02T23:00:55.410Z,63.73
2022-10-02T23:04:03.272Z,64.48
2022-10-02T23:07:16.501Z,64.63
2022-10-02T23:10:32.708Z,64.50
2022-10-02T23:13:45.586Z,64.47
2022-10-02T23:17:02.572Z,64.64
2022-10-02T23:20:16.111Z,64.54
2022-10-02T23:23:24.811Z,64.86
2022-10-02T23:26:34.688Z,64.79
2022-10-02T23:29:50.994Z,64.33
2022-10-02T23:33:04.147Z,64.99
2022-10-02T23:36:20.444Z,64.99
2022-10-02T23:39:36.202Z,64.11
2022-10-02T23:42:45.372Z,63.98
2022-10-02T23:45:57.948Z,64.34
2022-10-02T23:49:03.712Z,64.03
2022-10-02T23:52:36.313Z,63.77
2022-10-02T23:55:56.347Z,63.04
2022-10-02T23:59:18.411Z,63.52
